Terminal Aerodrome Forecast
Issued by NWS

Home | Current Version | Previous Version | Text Only | Print | Product List | Glossary On
Versions: 1 2 3 4 5 6 7 8 9 10 11 12 13 14 15 16 17 18 19 20 21 22 23
884
FTUS43 KICT 162128 AAC
TAFHUT
TAF AMD
KHUT 162128Z 1621/1718 31010KT P6SM OVC009
     FM170000 31011KT 5SM BR OVC007
     FM171300 32007KT P6SM SCT015=

USA.gov is the U.S. government's official web portal to all federal, state and local government web resources and services.